DAL732 KABQ-KSLC
Flight info
| Callsign | DAL732 |
|---|---|
| Flight time | N/A |
| Altitude | 34000 |
| Route | JEMEZ JNC HELPR PITTT2 |
| Aircraft | A321/M-SDE3FGHIRWY/LB1 |
Departure
| Time | 2026-05-05 00:53 |
|---|---|
| Airport | Albuquerque International Sunport (KABQ) |
Arrival
| Time | N/A |
|---|---|
| Airport | Salt Lake City International Airport (KSLC) |
| Time | Latitude | Longitude | Altitude | Speed | Heading |
|---|---|---|---|---|---|
| 2026-05-05 00:39 | 35.04687 | -106.61490 | 5321 ft | 0 kts | 11° |
| 2026-05-05 00:42 | 35.04686 | -106.61491 | 5317 ft | 2 kts | 11° |
| 2026-05-05 00:42 | 35.04668 | -106.61495 | 5315 ft | 3 kts | 11° |
| 2026-05-05 00:43 | 35.04649 | -106.61499 | 5321 ft | 3 kts | 11° |
| 2026-05-05 00:43 | 35.04631 | -106.61504 | 5313 ft | 3 kts | 11° |
| 2026-05-05 00:43 | 35.04612 | -106.61508 | 5312 ft | 3 kts | 11° |
| 2026-05-05 00:43 | 35.04605 | -106.61510 | 5319 ft | 0 kts | 11° |
| 2026-05-05 00:47 | 35.04608 | -106.61509 | 5321 ft | 3 kts | 13° |
| 2026-05-05 00:47 | 35.04602 | -106.61463 | 5314 ft | 12 kts | 114° |
| 2026-05-05 00:47 | 35.04580 | -106.61297 | 5318 ft | 27 kts | 91° |
| 2026-05-05 00:47 | 35.04576 | -106.61047 | 5317 ft | 32 kts | 91° |
| 2026-05-05 00:48 | 35.04574 | -106.60750 | 5317 ft | 38 kts | 89° |
| 2026-05-05 00:48 | 35.04576 | -106.60463 | 5314 ft | 33 kts | 90° |
| 2026-05-05 00:48 | 35.04576 | -106.60190 | 5316 ft | 31 kts | 90° |
| 2026-05-05 00:48 | 35.04578 | -106.59933 | 5319 ft | 29 kts | 85° |
| 2026-05-05 00:49 | 35.04586 | -106.59693 | 5314 ft | 28 kts | 90° |
| 2026-05-05 00:49 | 35.04586 | -106.59466 | 5314 ft | 26 kts | 90° |
| 2026-05-05 00:49 | 35.04586 | -106.59255 | 5317 ft | 24 kts | 90° |
| 2026-05-05 00:49 | 35.04586 | -106.59058 | 5321 ft | 22 kts | 90° |
| 2026-05-05 00:50 | 35.04584 | -106.58875 | 5312 ft | 21 kts | 91° |
| 2026-05-05 00:50 | 35.04581 | -106.58709 | 5312 ft | 19 kts | 91° |
| 2026-05-05 00:50 | 35.04578 | -106.58541 | 5317 ft | 24 kts | 90° |
| 2026-05-05 00:50 | 35.04578 | -106.58302 | 5321 ft | 33 kts | 90° |
| 2026-05-05 00:51 | 35.04575 | -106.57997 | 5321 ft | 37 kts | 91° |
| 2026-05-05 00:51 | 35.04574 | -106.57721 | 5321 ft | 28 kts | 90° |
| 2026-05-05 00:51 | 35.04531 | -106.57583 | 5311 ft | 0 kts | 167° |
| 2026-05-05 00:52 | 35.04530 | -106.57583 | 5321 ft | 1 kts | 167° |
| 2026-05-05 00:52 | 35.04453 | -106.57589 | 5315 ft | 23 kts | 204° |
| 2026-05-05 00:52 | 35.04405 | -106.57923 | 5320 ft | 75 kts | 270° |
| 2026-05-05 00:52 | 35.04414 | -106.58841 | 5323 ft | 139 kts | 270° |
| 2026-05-05 00:53 | 35.04428 | -106.60239 | 5351 ft | 186 kts | 271° |
| 2026-05-05 00:53 | 35.04480 | -106.61868 | 5882 ft | 197 kts | 274° |
| 2026-05-05 00:53 | 35.04589 | -106.63568 | 6541 ft | 205 kts | 276° |
| 2026-05-05 00:53 | 35.04760 | -106.65314 | 7280 ft | 206 kts | 278° |
| 2026-05-05 00:54 | 35.04980 | -106.66963 | 7950 ft | 189 kts | 279° |
| 2026-05-05 00:54 | 35.05312 | -106.68486 | 8308 ft | 191 kts | 297° |
| 2026-05-05 00:54 | 35.06394 | -106.69503 | 8439 ft | 214 kts | 341° |
| 2026-05-05 00:54 | 35.07930 | -106.69772 | 8597 ft | 232 kts | 352° |
| 2026-05-05 00:55 | 35.09599 | -106.70062 | 8709 ft | 254 kts | 350° |
| 2026-05-05 00:55 | 35.11421 | -106.70449 | 8914 ft | 277 kts | 348° |
| 2026-05-05 00:55 | 35.13362 | -106.70921 | 9392 ft | 289 kts | 348° |
| 2026-05-05 00:55 | 35.15346 | -106.71442 | 10078 ft | 294 kts | 347° |
| 2026-05-05 00:56 | 35.17407 | -106.72012 | 10349 ft | 315 kts | 347° |
| 2026-05-05 00:56 | 35.19619 | -106.72638 | 10487 ft | 338 kts | 346° |
| 2026-05-05 00:56 | 35.21973 | -106.73311 | 10725 ft | 355 kts | 346° |
| 2026-05-05 00:56 | 35.24402 | -106.74010 | 11275 ft | 361 kts | 346° |
| 2026-05-05 00:57 | 35.26862 | -106.74722 | 11904 ft | 365 kts | 346° |
| 2026-05-05 00:57 | 35.29344 | -106.75436 | 12530 ft | 368 kts | 346° |
| 2026-05-05 00:57 | 35.31855 | -106.76156 | 13141 ft | 372 kts | 346° |
| 2026-05-05 00:57 | 35.34383 | -106.76880 | 13744 ft | 375 kts | 347° |
| 2026-05-05 00:58 | 35.36940 | -106.77611 | 14328 ft | 380 kts | 346° |
| 2026-05-05 00:58 | 35.39489 | -106.78335 | 14907 ft | 382 kts | 347° |
| 2026-05-05 00:58 | 35.42122 | -106.79083 | 15467 ft | 386 kts | 347° |
| 2026-05-05 00:58 | 35.44750 | -106.79833 | 16026 ft | 389 kts | 346° |
| 2026-05-05 00:59 | 35.47360 | -106.80583 | 16580 ft | 392 kts | 346° |
| 2026-05-05 00:59 | 35.50028 | -106.81350 | 17128 ft | 395 kts | 346° |
| 2026-05-05 00:59 | 35.52709 | -106.82128 | 17643 ft | 398 kts | 346° |
| 2026-05-05 00:59 | 35.55413 | -106.82912 | 18148 ft | 401 kts | 346° |
| 2026-05-05 01:00 | 35.58139 | -106.83701 | 18609 ft | 405 kts | 346° |
| 2026-05-05 01:00 | 35.60893 | -106.84496 | 19025 ft | 408 kts | 346° |
| 2026-05-05 01:00 | 35.63665 | -106.85294 | 19481 ft | 411 kts | 347° |
| 2026-05-05 01:00 | 35.66460 | -106.86102 | 19898 ft | 414 kts | 346° |
| 2026-05-05 01:01 | 35.69266 | -106.86916 | 20306 ft | 416 kts | 347° |
| 2026-05-05 01:01 | 35.72095 | -106.87730 | 20694 ft | 419 kts | 346° |
| 2026-05-05 01:01 | 35.74939 | -106.88550 | 21091 ft | 422 kts | 346° |
| 2026-05-05 01:01 | 35.77809 | -106.89378 | 21500 ft | 425 kts | 346° |
| 2026-05-05 01:02 | 35.80693 | -106.90209 | 21905 ft | 427 kts | 347° |
| 2026-05-05 01:02 | 35.83595 | -106.91048 | 22286 ft | 429 kts | 346° |
| 2026-05-05 01:02 | 35.86510 | -106.91893 | 22662 ft | 431 kts | 346° |
| 2026-05-05 01:02 | 35.89433 | -106.92746 | 23011 ft | 433 kts | 346° |
| 2026-05-05 01:03 | 35.92370 | -106.93611 | 23353 ft | 435 kts | 345° |
| 2026-05-05 01:03 | 35.95245 | -106.94809 | 23690 ft | 438 kts | 335° |
| 2026-05-05 01:03 | 35.98022 | -106.96385 | 24036 ft | 440 kts | 335° |
| 2026-05-05 01:03 | 36.00808 | -106.97974 | 24377 ft | 442 kts | 335° |
| 2026-05-05 01:04 | 36.03611 | -106.99569 | 24706 ft | 445 kts | 335° |
| 2026-05-05 01:04 | 36.09231 | -107.02762 | 25321 ft | 449 kts | 335° |
| 2026-05-05 01:04 | 36.12073 | -107.04383 | 25603 ft | 451 kts | 335° |
| 2026-05-05 01:05 | 36.14932 | -107.06013 | 25886 ft | 454 kts | 335° |
| 2026-05-05 01:05 | 36.17808 | -107.07650 | 26194 ft | 456 kts | 335° |
| 2026-05-05 01:05 | 36.20695 | -107.09292 | 26488 ft | 458 kts | 335° |
| 2026-05-05 01:05 | 36.23588 | -107.10943 | 26747 ft | 459 kts | 335° |
| 2026-05-05 01:06 | 36.26499 | -107.12606 | 27020 ft | 461 kts | 335° |
| 2026-05-05 01:06 | 36.29411 | -107.14273 | 27286 ft | 462 kts | 335° |
| 2026-05-05 01:06 | 36.32342 | -107.15958 | 27534 ft | 464 kts | 334° |
| 2026-05-05 01:06 | 36.35276 | -107.17648 | 27783 ft | 466 kts | 335° |
| 2026-05-05 01:07 | 36.38225 | -107.19343 | 28011 ft | 468 kts | 335° |
| 2026-05-05 01:07 | 36.40186 | -107.20466 | 28179 ft | 469 kts | 335° |
| 2026-05-05 01:07 | 36.43155 | -107.22166 | 28415 ft | 471 kts | 335° |
| 2026-05-05 01:07 | 36.46135 | -107.23873 | 28650 ft | 473 kts | 335° |
| 2026-05-05 01:08 | 36.49127 | -107.25592 | 28904 ft | 475 kts | 335° |
| 2026-05-05 01:08 | 36.52129 | -107.27321 | 29151 ft | 476 kts | 335° |
| 2026-05-05 01:08 | 36.55144 | -107.29059 | 29387 ft | 477 kts | 335° |
| 2026-05-05 01:08 | 36.58151 | -107.30792 | 29711 ft | 476 kts | 335° |
| 2026-05-05 01:09 | 36.61159 | -107.32527 | 29999 ft | 476 kts | 335° |
| 2026-05-05 01:09 | 36.64158 | -107.34262 | 30296 ft | 475 kts | 335° |
| 2026-05-05 01:09 | 36.67149 | -107.35996 | 30607 ft | 474 kts | 335° |
| 2026-05-05 01:09 | 36.70134 | -107.37731 | 30928 ft | 473 kts | 335° |
| 2026-05-05 01:10 | 36.73118 | -107.39464 | 31227 ft | 472 kts | 335° |
| 2026-05-05 01:10 | 36.76091 | -107.41191 | 31526 ft | 471 kts | 335° |
| 2026-05-05 01:10 | 36.79023 | -107.42892 | 31820 ft | 471 kts | 335° |
| 2026-05-05 01:10 | 36.81989 | -107.44614 | 32116 ft | 470 kts | 334° |
| 2026-05-05 01:11 | 36.84954 | -107.46337 | 32421 ft | 469 kts | 335° |
| 2026-05-05 01:11 | 36.87909 | -107.48058 | 32716 ft | 468 kts | 334° |
| 2026-05-05 01:11 | 36.90858 | -107.49779 | 33014 ft | 468 kts | 334° |
| 2026-05-05 01:11 | 36.93807 | -107.51499 | 33313 ft | 467 kts | 334° |
| 2026-05-05 01:12 | 36.96749 | -107.53214 | 33615 ft | 465 kts | 335° |
| 2026-05-05 01:12 | 36.99680 | -107.54921 | 33903 ft | 464 kts | 335° |
| 2026-05-05 01:12 | 37.05520 | -107.58339 | 34012 ft | 461 kts | 334° |
| 2026-05-05 01:13 | 37.11322 | -107.61744 | 34007 ft | 461 kts | 334° |
| 2026-05-05 01:13 | 37.17119 | -107.65156 | 34008 ft | 460 kts | 334° |
| 2026-05-05 01:14 | 37.22922 | -107.68563 | 34011 ft | 461 kts | 335° |
| 2026-05-05 01:14 | 37.28732 | -107.71970 | 34015 ft | 461 kts | 335° |
| 2026-05-05 01:15 | 37.34549 | -107.75390 | 34017 ft | 462 kts | 334° |
| 2026-05-05 01:15 | 37.40378 | -107.78838 | 34006 ft | 464 kts | 334° |
| 2026-05-05 01:16 | 37.46180 | -107.82273 | 34016 ft | 464 kts | 334° |
| 2026-05-05 01:16 | 37.52018 | -107.85749 | 34001 ft | 464 kts | 334° |
| 2026-05-05 01:17 | 37.57870 | -107.89222 | 33991 ft | 465 kts | 335° |
| 2026-05-05 01:17 | 37.63732 | -107.92700 | 33997 ft | 466 kts | 335° |
| 2026-05-05 01:18 | 37.69603 | -107.96191 | 34005 ft | 466 kts | 334° |
| 2026-05-05 01:18 | 37.75467 | -107.99703 | 34011 ft | 467 kts | 334° |
| 2026-05-05 01:19 | 37.81346 | -108.03225 | 34018 ft | 467 kts | 334° |
| 2026-05-05 01:19 | 37.87215 | -108.06740 | 34009 ft | 467 kts | 334° |
| 2026-05-05 01:20 | 37.93080 | -108.10254 | 34007 ft | 467 kts | 334° |
| 2026-05-05 01:20 | 37.98952 | -108.13787 | 34018 ft | 466 kts | 334° |
| 2026-05-05 01:21 | 38.04803 | -108.17314 | 34017 ft | 465 kts | 334° |
| 2026-05-05 01:21 | 38.10642 | -108.20831 | 34026 ft | 464 kts | 334° |
| 2026-05-05 01:22 | 38.16470 | -108.24348 | 34032 ft | 463 kts | 334° |
| 2026-05-05 01:22 | 38.22265 | -108.27866 | 34026 ft | 461 kts | 334° |
| 2026-05-05 01:23 | 38.28064 | -108.31380 | 34029 ft | 462 kts | 334° |
| 2026-05-05 01:23 | 38.33868 | -108.34913 | 34016 ft | 462 kts | 334° |
| 2026-05-05 01:24 | 38.39665 | -108.38444 | 34008 ft | 461 kts | 334° |
| 2026-05-05 01:24 | 38.45458 | -108.41981 | 33992 ft | 462 kts | 334° |
| 2026-05-05 01:25 | 38.51221 | -108.45500 | 33989 ft | 462 kts | 334° |
| 2026-05-05 01:25 | 38.57056 | -108.49067 | 33983 ft | 461 kts | 334° |
| 2026-05-05 01:26 | 38.62850 | -108.52622 | 33991 ft | 463 kts | 334° |
| 2026-05-05 01:26 | 38.68611 | -108.56152 | 33995 ft | 462 kts | 334° |
| 2026-05-05 01:27 | 38.74404 | -108.59714 | 34000 ft | 461 kts | 334° |
| 2026-05-05 01:27 | 38.80179 | -108.63280 | 33993 ft | 461 kts | 334° |
| 2026-05-05 01:28 | 38.85953 | -108.66853 | 33994 ft | 461 kts | 334° |
| 2026-05-05 01:28 | 38.91736 | -108.70434 | 33991 ft | 461 kts | 334° |
| 2026-05-05 01:29 | 38.97525 | -108.74034 | 33999 ft | 462 kts | 334° |
| 2026-05-05 01:29 | 39.03174 | -108.77920 | 34007 ft | 461 kts | 323° |
| 2026-05-05 01:30 | 39.07618 | -108.83717 | 34013 ft | 459 kts | 304° |
| 2026-05-05 01:30 | 39.10674 | -108.90879 | 34010 ft | 455 kts | 297° |
| 2026-05-05 01:31 | 39.13594 | -108.98124 | 33999 ft | 455 kts | 297° |
| 2026-05-05 01:31 | 39.16530 | -109.05359 | 34007 ft | 456 kts | 297° |
| 2026-05-05 01:32 | 39.19451 | -109.12599 | 34011 ft | 455 kts | 297° |
| 2026-05-05 01:32 | 39.22350 | -109.19832 | 34007 ft | 453 kts | 297° |
| 2026-05-05 01:33 | 39.25244 | -109.27060 | 34003 ft | 453 kts | 297° |
| 2026-05-05 01:33 | 39.28132 | -109.34283 | 33991 ft | 453 kts | 297° |
| 2026-05-05 01:34 | 39.31028 | -109.41528 | 33986 ft | 455 kts | 297° |
| 2026-05-05 01:34 | 39.33925 | -109.48815 | 33986 ft | 456 kts | 297° |
| 2026-05-05 01:35 | 39.36822 | -109.56124 | 33980 ft | 459 kts | 297° |
| 2026-05-05 01:35 | 39.39734 | -109.63476 | 33991 ft | 459 kts | 297° |
| 2026-05-05 01:36 | 39.42636 | -109.70839 | 33992 ft | 459 kts | 297° |
| 2026-05-05 01:36 | 39.45505 | -109.78114 | 34004 ft | 459 kts | 297° |
| 2026-05-05 01:37 | 39.48408 | -109.85464 | 34005 ft | 458 kts | 296° |
| 2026-05-05 01:37 | 39.51287 | -109.92810 | 34004 ft | 456 kts | 296° |
| 2026-05-05 01:38 | 39.54139 | -110.00115 | 34009 ft | 453 kts | 296° |
| 2026-05-05 01:38 | 39.56972 | -110.07379 | 34010 ft | 450 kts | 296° |
| 2026-05-05 01:39 | 39.59793 | -110.14612 | 34010 ft | 449 kts | 296° |
| 2026-05-05 01:39 | 39.62603 | -110.21834 | 34009 ft | 448 kts | 296° |
| 2026-05-05 01:40 | 39.65397 | -110.29049 | 34002 ft | 447 kts | 296° |
| 2026-05-05 01:40 | 39.68175 | -110.36246 | 34008 ft | 445 kts | 296° |
| 2026-05-05 01:41 | 39.70936 | -110.43413 | 34007 ft | 443 kts | 296° |
| 2026-05-05 01:41 | 39.73682 | -110.50561 | 34010 ft | 440 kts | 296° |
| 2026-05-05 01:42 | 39.76409 | -110.57655 | 34011 ft | 438 kts | 296° |
| 2026-05-05 01:42 | 39.79127 | -110.64760 | 33687 ft | 444 kts | 296° |
| 2026-05-05 01:43 | 39.80510 | -110.68382 | 33336 ft | 452 kts | 296° |
| 2026-05-05 01:43 | 39.81911 | -110.72050 | 32333 ft | 464 kts | 296° |
| 2026-05-05 01:43 | 39.83351 | -110.75826 | 31409 ft | 469 kts | 296° |
| 2026-05-05 01:43 | 39.84803 | -110.79641 | 30695 ft | 469 kts | 296° |
| 2026-05-05 01:44 | 39.86251 | -110.83444 | 30057 ft | 469 kts | 296° |
| 2026-05-05 01:44 | 39.87696 | -110.87247 | 29380 ft | 468 kts | 296° |
| 2026-05-05 01:44 | 39.89137 | -110.91048 | 28707 ft | 467 kts | 296° |
| 2026-05-05 01:44 | 39.90570 | -110.94830 | 28036 ft | 464 kts | 296° |
| 2026-05-05 01:45 | 39.91993 | -110.98591 | 27372 ft | 462 kts | 296° |
| 2026-05-05 01:45 | 39.93405 | -111.02330 | 26714 ft | 458 kts | 296° |
| 2026-05-05 01:45 | 39.94802 | -111.06038 | 26068 ft | 454 kts | 296° |
| 2026-05-05 01:45 | 39.96190 | -111.09724 | 25434 ft | 450 kts | 296° |
| 2026-05-05 01:46 | 39.97563 | -111.13369 | 24801 ft | 446 kts | 295° |
| 2026-05-05 01:46 | 39.98922 | -111.16983 | 24180 ft | 442 kts | 295° |
| 2026-05-05 01:46 | 40.00265 | -111.20568 | 23568 ft | 438 kts | 295° |
| 2026-05-05 01:46 | 40.01592 | -111.24115 | 22974 ft | 433 kts | 296° |
| 2026-05-05 01:47 | 40.02908 | -111.27622 | 22412 ft | 427 kts | 296° |
| 2026-05-05 01:47 | 40.04199 | -111.31072 | 21882 ft | 420 kts | 295° |
| 2026-05-05 01:47 | 40.05455 | -111.34425 | 21375 ft | 414 kts | 296° |
| 2026-05-05 01:47 | 40.06712 | -111.37784 | 20888 ft | 408 kts | 295° |
| 2026-05-05 01:48 | 40.07944 | -111.41090 | 20413 ft | 403 kts | 295° |
| 2026-05-05 01:48 | 40.09158 | -111.44360 | 19951 ft | 398 kts | 295° |
| 2026-05-05 01:48 | 40.10354 | -111.47589 | 19503 ft | 393 kts | 295° |
| 2026-05-05 01:48 | 40.11537 | -111.50786 | 19163 ft | 389 kts | 295° |
| 2026-05-05 01:49 | 40.12722 | -111.53972 | 19053 ft | 390 kts | 295° |
| 2026-05-05 01:49 | 40.13908 | -111.57164 | 18884 ft | 390 kts | 295° |
| 2026-05-05 01:49 | 40.15087 | -111.60345 | 18725 ft | 389 kts | 295° |
| 2026-05-05 01:49 | 40.16260 | -111.63520 | 18566 ft | 387 kts | 295° |
| 2026-05-05 01:50 | 40.17433 | -111.66695 | 18400 ft | 386 kts | 295° |
| 2026-05-05 01:50 | 40.18597 | -111.69853 | 18239 ft | 386 kts | 295° |